Brzeg, Poland
Current Conditions -  °F | °C
As of 5:00 AM on Saturday 22 Nov 2014 (Local Time) from EPWR Reporting Station
Light Rain Light Rain  
Wind Chill: 39°   Ceiling: 3000
Heat Index: 39°   Visibility: 3mi
Dew Point: 37°   Wind: 3mph
Humidity: 93%   Direction: 120°ESE
Pressure: 30.3"   Gusts: NA
Location:  50.85°N, 17.47°E
Report Text: EPWR 220300Z 12003KT 5000 -RA BR FEW004 BKN030 04/03 Q1026
Loading
Personal Weather Stations






























Interactive Weather Map New forecast layout! Learn more

10-Day Weather Forecast

Advertisements
Track Severe Weather on mobile